Terminal Aerodrome Forecast
Issued by NWS

Home | Current Version | Previous Version | Text Only | Print | Product List | Glossary On
Versions: 1 2 3 4 5 6 7 8 9 10 11 12 13 14 15 16 17 18 19 20 21 22 23 24 25 26 27 28 29 30
000
FTUS41 KAKQ 010921 AAA
TAFPHF
TAF AMD
KPHF 010921Z 0109/0206 12004KT P6SM VCSH OVC012
      TEMPO 0109/0112 3SM SHRA BR BKN008
     FM011200 17004KT 5SM BR BKN005 OVC012
     FM011500 18005KT P6SM BKN030
     FM011800 19007KT P6SM SCT040=

USA.gov is the U.S. government's official web portal to all federal, state and local government web resources and services.